sensor_id;sensor_type;location;lat;lon;timestamp;P1;durP1;ratioP1;P2;durP2;ratioP2
30593;SDS011;33199;47.590;8.300;2022-09-29T00:00:55;0.60;;;0.60;;
30593;SDS011;33199;47.590;8.300;2022-09-29T00:03:21;0.57;;;0.50;;
30593;SDS011;33199;47.590;8.300;2022-09-29T00:05:48;0.47;;;0.47;;
30593;SDS011;33199;47.590;8.300;2022-09-29T00:08:14;0.70;;;0.60;;
30593;SDS011;33199;47.590;8.300;2022-09-29T00:10:41;0.52;;;0.52;;
30593;SDS011;33199;47.590;8.300;2022-09-29T00:13:06;0.80;;;0.80;;
30593;SDS011;33199;47.590;8.300;2022-09-29T00:15:32;0.60;;;0.60;;
30593;SDS011;33199;47.590;8.300;2022-09-29T00:17:57;0.47;;;0.47;;
30593;SDS011;33199;47.590;8.300;2022-09-29T00:20:24;0.70;;;0.70;;
30593;SDS011;33199;47.590;8.300;2022-09-29T00:22:49;0.63;;;0.63;;
30593;SDS011;33199;47.590;8.300;2022-09-29T00:25:15;0.88;;;0.80;;
30593;SDS011;33199;47.590;8.300;2022-09-29T00:27:42;0.60;;;0.60;;
30593;SDS011;33199;47.590;8.300;2022-09-29T00:30:08;1.65;;;0.50;;
30593;SDS011;33199;47.590;8.300;2022-09-29T00:32:34;0.70;;;0.70;;
30593;SDS011;33199;47.590;8.300;2022-09-29T00:34:59;0.63;;;0.63;;
30593;SDS011;33199;47.590;8.300;2022-09-29T00:37:25;0.82;;;0.60;;
30593;SDS011;33199;47.590;8.300;2022-09-29T00:39:50;0.50;;;0.50;;
30593;SDS011;33199;47.590;8.300;2022-09-29T00:42:18;0.60;;;0.60;;
30593;SDS011;33199;47.590;8.300;2022-09-29T00:44:53;0.60;;;0.60;;
30593;SDS011;33199;47.590;8.300;2022-09-29T00:47:29;0.52;;;0.52;;
30593;SDS011;33199;47.590;8.300;2022-09-29T00:52:38;0.55;;;0.55;;
30593;SDS011;33199;47.590;8.300;2022-09-29T00:58:36;0.70;;;0.70;;
30593;SDS011;33199;47.590;8.300;2022-09-29T01:01:03;0.82;;;0.50;;
30593;SDS011;33199;47.590;8.300;2022-09-29T01:03:31;1.38;;;0.68;;
30593;SDS011;33199;47.590;8.300;2022-09-29T01:06:02;1.20;;;0.50;;
30593;SDS011;33199;47.590;8.300;2022-09-29T01:11:23;0.47;;;0.43;;
30593;SDS011;33199;47.590;8.300;2022-09-29T01:13:49;0.50;;;0.50;;
30593;SDS011;33199;47.590;8.300;2022-09-29T01:16:17;1.00;;;0.60;;
30593;SDS011;33199;47.590;8.300;2022-09-29T01:18:42;0.85;;;0.70;;
30593;SDS011;33199;47.590;8.300;2022-09-29T01:32:23;0.40;;;0.40;;
30593;SDS011;33199;47.590;8.300;2022-09-29T01:37:40;0.52;;;0.50;;
30593;SDS011;33199;47.590;8.300;2022-09-29T01:40:17;0.52;;;0.50;;
30593;SDS011;33199;47.590;8.300;2022-09-29T01:42:59;0.80;;;0.43;;
30593;SDS011;33199;47.590;8.300;2022-09-29T01:45:32;0.65;;;0.50;;
30593;SDS011;33199;47.590;8.300;2022-09-29T01:48:05;1.25;;;0.40;;
30593;SDS011;33199;47.590;8.300;2022-09-29T01:50:44;0.50;;;0.50;;
30593;SDS011;33199;47.590;8.300;2022-09-29T01:53:22;0.30;;;0.30;;
30593;SDS011;33199;47.590;8.300;2022-09-29T01:55:55;4.55;;;0.50;;
30593;SDS011;33199;47.590;8.300;2022-09-29T01:58:29;0.40;;;0.40;;
30593;SDS011;33199;47.590;8.300;2022-09-29T02:01:03;0.40;;;0.40;;
30593;SDS011;33199;47.590;8.300;2022-09-29T02:03:49;2.80;;;0.50;;
30593;SDS011;33199;47.590;8.300;2022-09-29T02:06:20;0.40;;;0.40;;
30593;SDS011;33199;47.590;8.300;2022-09-29T02:08:52;0.52;;;0.45;;
30593;SDS011;33199;47.590;8.300;2022-09-29T02:16:18;0.50;;;0.50;;
30593;SDS011;33199;47.590;8.300;2022-09-29T02:19:05;0.40;;;0.40;;
30593;SDS011;33199;47.590;8.300;2022-09-29T02:21:37;2.22;;;0.47;;
30593;SDS011;33199;47.590;8.300;2022-09-29T02:24:03;0.45;;;0.45;;
30593;SDS011;33199;47.590;8.300;2022-09-29T02:26:29;0.40;;;0.40;;
30593;SDS011;33199;47.590;8.300;2022-09-29T02:29:01;0.50;;;0.50;;
30593;SDS011;33199;47.590;8.300;2022-09-29T02:31:28;0.50;;;0.50;;
30593;SDS011;33199;47.590;8.300;2022-09-29T02:33:55;0.50;;;0.50;;
30593;SDS011;33199;47.590;8.300;2022-09-29T02:38:52;0.38;;;0.35;;
30593;SDS011;33199;47.590;8.300;2022-09-29T02:44:26;0.43;;;0.43;;
30593;SDS011;33199;47.590;8.300;2022-09-29T02:47:20;0.43;;;0.30;;
30593;SDS011;33199;47.590;8.300;2022-09-29T02:50:05;0.45;;;0.45;;
30593;SDS011;33199;47.590;8.300;2022-09-29T02:52:53;0.40;;;0.40;;
30593;SDS011;33199;47.590;8.300;2022-09-29T02:55:40;0.30;;;0.30;;
30593;SDS011;33199;47.590;8.300;2022-09-29T02:58:19;0.40;;;0.40;;
30593;SDS011;33199;47.590;8.300;2022-09-29T03:00:55;0.47;;;0.47;;
30593;SDS011;33199;47.590;8.300;2022-09-29T03:03:22;0.50;;;0.50;;
30593;SDS011;33199;47.590;8.300;2022-09-29T03:05:47;0.43;;;0.43;;
30593;SDS011;33199;47.590;8.300;2022-09-29T03:08:13;0.40;;;0.40;;
30593;SDS011;33199;47.590;8.300;2022-09-29T03:10:38;0.45;;;0.45;;
30593;SDS011;33199;47.590;8.300;2022-09-29T03:13:04;0.40;;;0.40;;
30593;SDS011;33199;47.590;8.300;2022-09-29T03:15:29;0.40;;;0.40;;
30593;SDS011;33199;47.590;8.300;2022-09-29T03:17:55;0.40;;;0.40;;
30593;SDS011;33199;47.590;8.300;2022-09-29T03:20:21;0.50;;;0.50;;
30593;SDS011;33199;47.590;8.300;2022-09-29T03:22:47;1.17;;;0.50;;
30593;SDS011;33199;47.590;8.300;2022-09-29T03:25:12;0.47;;;0.47;;
30593;SDS011;33199;47.590;8.300;2022-09-29T03:27:38;0.40;;;0.40;;
30593;SDS011;33199;47.590;8.300;2022-09-29T03:30:04;0.40;;;0.40;;
30593;SDS011;33199;47.590;8.300;2022-09-29T03:32:30;0.30;;;0.30;;
30593;SDS011;33199;47.590;8.300;2022-09-29T03:34:56;0.30;;;0.30;;
30593;SDS011;33199;47.590;8.300;2022-09-29T03:37:21;0.30;;;0.30;;
30593;SDS011;33199;47.590;8.300;2022-09-29T03:39:47;0.40;;;0.40;;
30593;SDS011;33199;47.590;8.300;2022-09-29T03:42:13;1.50;;;0.50;;
30593;SDS011;33199;47.590;8.300;2022-09-29T03:44:38;0.50;;;0.50;;
30593;SDS011;33199;47.590;8.300;2022-09-29T03:47:04;0.40;;;0.40;;
30593;SDS011;33199;47.590;8.300;2022-09-29T03:49:29;0.50;;;0.50;;
30593;SDS011;33199;47.590;8.300;2022-09-29T03:51:55;0.40;;;0.40;;
30593;SDS011;33199;47.590;8.300;2022-09-29T03:54:21;0.30;;;0.30;;
30593;SDS011;33199;47.590;8.300;2022-09-29T03:56:48;0.40;;;0.40;;
30593;SDS011;33199;47.590;8.300;2022-09-29T03:59:13;0.40;;;0.40;;
30593;SDS011;33199;47.590;8.300;2022-09-29T04:01:39;0.50;;;0.50;;
30593;SDS011;33199;47.590;8.300;2022-09-29T04:04:05;1.27;;;0.60;;
30593;SDS011;33199;47.590;8.300;2022-09-29T04:06:30;0.40;;;0.40;;
30593;SDS011;33199;47.590;8.300;2022-09-29T04:08:56;0.30;;;0.30;;
30593;SDS011;33199;47.590;8.300;2022-09-29T04:11:22;0.40;;;0.40;;
30593;SDS011;33199;47.590;8.300;2022-09-29T04:13:47;0.30;;;0.30;;
30593;SDS011;33199;47.590;8.300;2022-09-29T04:16:13;0.40;;;0.40;;
30593;SDS011;33199;47.590;8.300;2022-09-29T04:18:39;0.38;;;0.38;;
30593;SDS011;33199;47.590;8.300;2022-09-29T04:21:05;0.40;;;0.40;;
30593;SDS011;33199;47.590;8.300;2022-09-29T04:23:31;0.30;;;0.30;;
30593;SDS011;33199;47.590;8.300;2022-09-29T04:25:58;0.40;;;0.40;;
30593;SDS011;33199;47.590;8.300;2022-09-29T04:28:25;0.40;;;0.40;;
30593;SDS011;33199;47.590;8.300;2022-09-29T04:30:51;1.50;;;1.40;;
30593;SDS011;33199;47.590;8.300;2022-09-29T04:33:17;2.08;;;1.98;;
30593;SDS011;33199;47.590;8.300;2022-09-29T04:35:42;2.08;;;1.88;;
30593;SDS011;33199;47.590;8.300;2022-09-29T04:38:08;1.63;;;1.52;;
30593;SDS011;33199;47.590;8.300;2022-09-29T04:40:34;1.73;;;1.63;;
30593;SDS011;33199;47.590;8.300;2022-09-29T04:43:00;1.92;;;1.75;;
30593;SDS011;33199;47.590;8.300;2022-09-29T04:45:26;11.90;;;1.98;;
30593;SDS011;33199;47.590;8.300;2022-09-29T04:47:51;1.30;;;1.17;;
30593;SDS011;33199;47.590;8.300;2022-09-29T04:50:17;1.20;;;1.10;;
30593;SDS011;33199;47.590;8.300;2022-09-29T04:52:42;0.95;;;0.95;;
30593;SDS011;33199;47.590;8.300;2022-09-29T04:55:09;1.20;;;1.08;;
30593;SDS011;33199;47.590;8.300;2022-09-29T04:57:38;1.30;;;1.20;;
30593;SDS011;33199;47.590;8.300;2022-09-29T05:00:05;0.90;;;0.90;;
30593;SDS011;33199;47.590;8.300;2022-09-29T05:02:32;1.27;;;1.00;;
30593;SDS011;33199;47.590;8.300;2022-09-29T05:04:58;1.10;;;1.00;;
30593;SDS011;33199;47.590;8.300;2022-09-29T05:07:24;0.73;;;0.73;;
30593;SDS011;33199;47.590;8.300;2022-09-29T05:09:50;2.33;;;0.60;;
30593;SDS011;33199;47.590;8.300;2022-09-29T05:12:15;0.77;;;0.77;;
30593;SDS011;33199;47.590;8.300;2022-09-29T05:14:45;1.80;;;0.65;;
30593;SDS011;33199;47.590;8.300;2022-09-29T05:17:10;3.70;;;0.80;;
30593;SDS011;33199;47.590;8.300;2022-09-29T05:19:36;1.20;;;0.70;;
30593;SDS011;33199;47.590;8.300;2022-09-29T05:22:02;1.15;;;0.80;;
30593;SDS011;33199;47.590;8.300;2022-09-29T05:24:28;0.40;;;0.40;;
30593;SDS011;33199;47.590;8.300;2022-09-29T05:26:53;0.55;;;0.55;;
30593;SDS011;33199;47.590;8.300;2022-09-29T05:29:19;1.00;;;0.88;;
30593;SDS011;33199;47.590;8.300;2022-09-29T05:31:45;0.55;;;0.50;;
30593;SDS011;33199;47.590;8.300;2022-09-29T05:34:12;2.97;;;1.70;;
30593;SDS011;33199;47.590;8.300;2022-09-29T05:36:37;0.93;;;0.63;;
30593;SDS011;33199;47.590;8.300;2022-09-29T05:39:03;0.60;;;0.60;;
30593;SDS011;33199;47.590;8.300;2022-09-29T05:41:28;0.52;;;0.52;;
30593;SDS011;33199;47.590;8.300;2022-09-29T05:43:54;0.60;;;0.60;;
30593;SDS011;33199;47.590;8.300;2022-09-29T05:46:20;0.55;;;0.55;;
30593;SDS011;33199;47.590;8.300;2022-09-29T05:48:48;0.45;;;0.45;;
30593;SDS011;33199;47.590;8.300;2022-09-29T05:51:16;0.57;;;0.57;;
30593;SDS011;33199;47.590;8.300;2022-09-29T05:53:44;0.43;;;0.43;;
30593;SDS011;33199;47.590;8.300;2022-09-29T05:56:15;0.50;;;0.40;;
30593;SDS011;33199;47.590;8.300;2022-09-29T05:58:43;0.68;;;0.63;;
30593;SDS011;33199;47.590;8.300;2022-09-29T06:01:13;0.55;;;0.55;;
30593;SDS011;33199;47.590;8.300;2022-09-29T06:03:40;1.55;;;0.65;;
30593;SDS011;33199;47.590;8.300;2022-09-29T06:06:13;1.85;;;0.65;;
30593;SDS011;33199;47.590;8.300;2022-09-29T06:08:41;5.35;;;4.13;;
30593;SDS011;33199;47.590;8.300;2022-09-29T06:11:12;5.22;;;4.72;;
30593;SDS011;33199;47.590;8.300;2022-09-29T06:13:40;5.78;;;4.28;;
30593;SDS011;33199;47.590;8.300;2022-09-29T06:16:08;5.53;;;3.97;;
30593;SDS011;33199;47.590;8.300;2022-09-29T06:18:34;9.25;;;4.78;;
30593;SDS011;33199;47.590;8.300;2022-09-29T06:21:01;9.15;;;4.20;;
30593;SDS011;33199;47.590;8.300;2022-09-29T06:23:32;6.88;;;3.63;;
30593;SDS011;33199;47.590;8.300;2022-09-29T06:25:59;6.18;;;3.45;;
30593;SDS011;33199;47.590;8.300;2022-09-29T06:28:28;5.03;;;3.58;;
30593;SDS011;33199;47.590;8.300;2022-09-29T06:31:02;4.82;;;3.13;;
30593;SDS011;33199;47.590;8.300;2022-09-29T06:33:29;3.72;;;2.92;;
30593;SDS011;33199;47.590;8.300;2022-09-29T06:35:56;4.15;;;2.72;;
30593;SDS011;33199;47.590;8.300;2022-09-29T06:38:41;5.10;;;2.97;;
30593;SDS011;33199;47.590;8.300;2022-09-29T06:41:07;2.70;;;2.50;;
30593;SDS011;33199;47.590;8.300;2022-09-29T06:43:33;4.07;;;2.72;;
30593;SDS011;33199;47.590;8.300;2022-09-29T06:45:59;3.22;;;2.28;;
30593;SDS011;33199;47.590;8.300;2022-09-29T06:48:25;6.30;;;2.10;;
30593;SDS011;33199;47.590;8.300;2022-09-29T06:50:53;2.75;;;2.17;;
30593;SDS011;33199;47.590;8.300;2022-09-29T06:53:19;2.63;;;2.28;;
30593;SDS011;33199;47.590;8.300;2022-09-29T06:55:50;5.07;;;1.98;;
30593;SDS011;33199;47.590;8.300;2022-09-29T06:58:20;1.83;;;1.73;;
30593;SDS011;33199;47.590;8.300;2022-09-29T07:00:46;4.60;;;1.80;;
30593;SDS011;33199;47.590;8.300;2022-09-29T07:03:12;1.63;;;1.50;;
30593;SDS011;33199;47.590;8.300;2022-09-29T07:05:38;1.52;;;1.35;;
30593;SDS011;33199;47.590;8.300;2022-09-29T07:08:03;1.30;;;1.20;;
30593;SDS011;33199;47.590;8.300;2022-09-29T07:10:29;1.40;;;1.30;;
30593;SDS011;33199;47.590;8.300;2022-09-29T07:12:54;1.90;;;1.10;;
30593;SDS011;33199;47.590;8.300;2022-09-29T07:15:20;1.67;;;1.52;;
30593;SDS011;33199;47.590;8.300;2022-09-29T07:17:49;1.13;;;1.08;;
30593;SDS011;33199;47.590;8.300;2022-09-29T07:20:15;2.38;;;1.30;;
30593;SDS011;33199;47.590;8.300;2022-09-29T07:22:41;1.20;;;1.10;;
30593;SDS011;33199;47.590;8.300;2022-09-29T07:25:10;0.88;;;0.85;;
30593;SDS011;33199;47.590;8.300;2022-09-29T07:27:35;0.93;;;0.88;;
30593;SDS011;33199;47.590;8.300;2022-09-29T07:30:01;1.20;;;1.00;;
30593;SDS011;33199;47.590;8.300;2022-09-29T07:32:27;2.03;;;1.00;;
30593;SDS011;33199;47.590;8.300;2022-09-29T07:34:56;0.90;;;0.90;;
30593;SDS011;33199;47.590;8.300;2022-09-29T07:37:22;2.90;;;0.80;;
30593;SDS011;33199;47.590;8.300;2022-09-29T07:39:49;3.22;;;0.80;;
30593;SDS011;33199;47.590;8.300;2022-09-29T07:42:15;1.60;;;1.13;;
30593;SDS011;33199;47.590;8.300;2022-09-29T07:44:42;1.13;;;1.02;;
30593;SDS011;33199;47.590;8.300;2022-09-29T07:47:07;0.90;;;0.90;;
30593;SDS011;33199;47.590;8.300;2022-09-29T07:49:33;1.50;;;0.88;;
30593;SDS011;33199;47.590;8.300;2022-09-29T07:51:59;0.77;;;0.77;;
30593;SDS011;33199;47.590;8.300;2022-09-29T07:54:24;0.80;;;0.80;;
30593;SDS011;33199;47.590;8.300;2022-09-29T07:56:50;0.60;;;0.60;;
30593;SDS011;33199;47.590;8.300;2022-09-29T07:59:16;0.80;;;0.80;;
30593;SDS011;33199;47.590;8.300;2022-09-29T08:01:42;1.08;;;0.82;;
30593;SDS011;33199;47.590;8.300;2022-09-29T08:04:07;1.20;;;0.60;;
30593;SDS011;33199;47.590;8.300;2022-09-29T08:06:33;1.30;;;0.70;;
30593;SDS011;33199;47.590;8.300;2022-09-29T08:08:59;0.65;;;0.65;;
30593;SDS011;33199;47.590;8.300;2022-09-29T08:11:28;0.70;;;0.70;;
30593;SDS011;33199;47.590;8.300;2022-09-29T08:13:54;2.88;;;0.85;;
30593;SDS011;33199;47.590;8.300;2022-09-29T08:16:20;0.82;;;0.70;;
30593;SDS011;33199;47.590;8.300;2022-09-29T08:18:46;1.45;;;0.70;;
30593;SDS011;33199;47.590;8.300;2022-09-29T08:21:11;0.52;;;0.52;;
30593;SDS011;33199;47.590;8.300;2022-09-29T08:23:39;0.88;;;0.80;;
30593;SDS011;33199;47.590;8.300;2022-09-29T08:26:08;2.00;;;0.75;;
30593;SDS011;33199;47.590;8.300;2022-09-29T08:28:36;1.08;;;0.60;;
30593;SDS011;33199;47.590;8.300;2022-09-29T08:31:03;0.70;;;0.70;;
30593;SDS011;33199;47.590;8.300;2022-09-29T08:33:30;0.65;;;0.65;;
30593;SDS011;33199;47.590;8.300;2022-09-29T08:35:57;1.00;;;0.80;;
30593;SDS011;33199;47.590;8.300;2022-09-29T08:38:24;0.60;;;0.60;;
30593;SDS011;33199;47.590;8.300;2022-09-29T08:40:50;2.03;;;0.60;;
30593;SDS011;33199;47.590;8.300;2022-09-29T08:43:21;0.68;;;0.68;;
30593;SDS011;33199;47.590;8.300;2022-09-29T08:48:27;0.88;;;0.60;;
30593;SDS011;33199;47.590;8.300;2022-09-29T08:50:56;0.70;;;0.70;;
30593;SDS011;33199;47.590;8.300;2022-09-29T08:53:24;0.70;;;0.70;;
30593;SDS011;33199;47.590;8.300;2022-09-29T08:58:24;1.42;;;0.77;;
30593;SDS011;33199;47.590;8.300;2022-09-29T09:12:13;3.40;;;0.70;;
30593;SDS011;33199;47.590;8.300;2022-09-29T09:15:00;0.73;;;0.70;;
30593;SDS011;33199;47.590;8.300;2022-09-29T09:17:57;0.80;;;0.70;;
30593;SDS011;33199;47.590;8.300;2022-09-29T09:20:33;0.52;;;0.50;;
30593;SDS011;33199;47.590;8.300;2022-09-29T09:23:36;4.18;;;0.68;;
30593;SDS011;33199;47.590;8.300;2022-09-29T09:26:01;0.43;;;0.40;;
30593;SDS011;33199;47.590;8.300;2022-09-29T09:31:14;0.82;;;0.73;;
30593;SDS011;33199;47.590;8.300;2022-09-29T09:33:47;0.75;;;0.50;;
30593;SDS011;33199;47.590;8.300;2022-09-29T09:36:36;0.47;;;0.47;;
30593;SDS011;33199;47.590;8.300;2022-09-29T09:39:12;0.60;;;0.60;;
30593;SDS011;33199;47.590;8.300;2022-09-29T09:41:40;0.50;;;0.50;;
30593;SDS011;33199;47.590;8.300;2022-09-29T09:44:16;0.40;;;0.40;;
30593;SDS011;33199;47.590;8.300;2022-09-29T09:46:47;0.50;;;0.50;;
30593;SDS011;33199;47.590;8.300;2022-09-29T09:52:03;0.50;;;0.50;;
30593;SDS011;33199;47.590;8.300;2022-09-29T09:54:32;0.57;;;0.55;;
30593;SDS011;33199;47.590;8.300;2022-09-29T10:03:21;1.65;;;0.77;;
30593;SDS011;33199;47.590;8.300;2022-09-29T10:05:47;0.50;;;0.50;;
30593;SDS011;33199;47.590;8.300;2022-09-29T10:10:50;0.70;;;0.70;;
30593;SDS011;33199;47.590;8.300;2022-09-29T10:13:16;0.75;;;0.50;;
30593;SDS011;33199;47.590;8.300;2022-09-29T10:21:20;0.60;;;0.60;;
30593;SDS011;33199;47.590;8.300;2022-09-29T10:23:57;0.40;;;0.40;;
30593;SDS011;33199;47.590;8.300;2022-09-29T10:26:32;0.50;;;0.50;;
30593;SDS011;33199;47.590;8.300;2022-09-29T10:32:06;0.60;;;0.60;;
30593;SDS011;33199;47.590;8.300;2022-09-29T10:34:39;0.50;;;0.50;;
30593;SDS011;33199;47.590;8.300;2022-09-29T10:37:29;0.65;;;0.60;;
30593;SDS011;33199;47.590;8.300;2022-09-29T10:40:02;1.10;;;0.40;;
30593;SDS011;33199;47.590;8.300;2022-09-29T10:42:35;0.85;;;0.60;;
30593;SDS011;33199;47.590;8.300;2022-09-29T10:45:21;0.70;;;0.60;;
30593;SDS011;33199;47.590;8.300;2022-09-29T10:50:27;0.60;;;0.60;;
30593;SDS011;33199;47.590;8.300;2022-09-29T10:55:46;1.23;;;0.60;;
30593;SDS011;33199;47.590;8.300;2022-09-29T10:58:19;0.60;;;0.60;;
30593;SDS011;33199;47.590;8.300;2022-09-29T11:01:09;0.55;;;0.55;;
30593;SDS011;33199;47.590;8.300;2022-09-29T11:03:47;0.60;;;0.60;;
30593;SDS011;33199;47.590;8.300;2022-09-29T11:06:16;0.60;;;0.60;;
30593;SDS011;33199;47.590;8.300;2022-09-29T11:09:00;0.65;;;0.65;;
30593;SDS011;33199;47.590;8.300;2022-09-29T11:11:51;0.60;;;0.43;;
30593;SDS011;33199;47.590;8.300;2022-09-29T11:14:25;0.60;;;0.60;;
30593;SDS011;33199;47.590;8.300;2022-09-29T11:16:54;0.50;;;0.50;;
30593;SDS011;33199;47.590;8.300;2022-09-29T11:21:52;0.95;;;0.50;;
30593;SDS011;33199;47.590;8.300;2022-09-29T11:27:38;0.50;;;0.50;;
30593;SDS011;33199;47.590;8.300;2022-09-29T11:30:18;0.90;;;0.50;;
30593;SDS011;33199;47.590;8.300;2022-09-29T11:38:39;0.40;;;0.40;;
30593;SDS011;33199;47.590;8.300;2022-09-29T11:55:04;0.50;;;0.50;;
30593;SDS011;33199;47.590;8.300;2022-09-29T12:00:32;0.50;;;0.50;;
30593;SDS011;33199;47.590;8.300;2022-09-29T12:06:08;0.70;;;0.70;;
30593;SDS011;33199;47.590;8.300;2022-09-29T12:08:43;0.68;;;0.68;;
30593;SDS011;33199;47.590;8.300;2022-09-29T12:14:28;0.70;;;0.70;;
30593;SDS011;33199;47.590;8.300;2022-09-29T12:17:04;0.55;;;0.55;;
30593;SDS011;33199;47.590;8.300;2022-09-29T12:19:36;0.40;;;0.40;;
30593;SDS011;33199;47.590;8.300;2022-09-29T12:22:04;0.60;;;0.60;;
30593;SDS011;33199;47.590;8.300;2022-09-29T12:24:35;0.60;;;0.60;;
30593;SDS011;33199;47.590;8.300;2022-09-29T12:27:08;0.40;;;0.40;;
30593;SDS011;33199;47.590;8.300;2022-09-29T12:29:56;0.60;;;0.60;;
30593;SDS011;33199;47.590;8.300;2022-09-29T12:32:30;0.60;;;0.57;;
30593;SDS011;33199;47.590;8.300;2022-09-29T12:35:03;0.40;;;0.40;;
30593;SDS011;33199;47.590;8.300;2022-09-29T12:37:35;1.10;;;0.60;;
30593;SDS011;33199;47.590;8.300;2022-09-29T12:40:16;0.40;;;0.40;;
30593;SDS011;33199;47.590;8.300;2022-09-29T12:42:56;0.65;;;0.47;;
30593;SDS011;33199;47.590;8.300;2022-09-29T12:45:42;0.50;;;0.50;;
30593;SDS011;33199;47.590;8.300;2022-09-29T12:51:01;0.50;;;0.50;;
30593;SDS011;33199;47.590;8.300;2022-09-29T12:56:21;0.40;;;0.40;;
30593;SDS011;33199;47.590;8.300;2022-09-29T12:58:52;0.50;;;0.50;;
30593;SDS011;33199;47.590;8.300;2022-09-29T13:06:59;0.77;;;0.40;;
30593;SDS011;33199;47.590;8.300;2022-09-29T13:09:41;0.50;;;0.50;;
30593;SDS011;33199;47.590;8.300;2022-09-29T13:19:04;0.85;;;0.60;;
30593;SDS011;33199;47.590;8.300;2022-09-29T13:21:22;0.40;;;0.40;;
30593;SDS011;33199;47.590;8.300;2022-09-29T13:26:57;0.52;;;0.47;;
30593;SDS011;33199;47.590;8.300;2022-09-29T13:30:33;0.60;;;0.60;;
30593;SDS011;33199;47.590;8.300;2022-09-29T13:33:07;0.40;;;0.40;;
30593;SDS011;33199;47.590;8.300;2022-09-29T13:35:37;0.73;;;0.73;;
30593;SDS011;33199;47.590;8.300;2022-09-29T13:38:06;0.52;;;0.32;;
30593;SDS011;33199;47.590;8.300;2022-09-29T13:40:37;0.80;;;0.40;;
30593;SDS011;33199;47.590;8.300;2022-09-29T13:43:03;0.70;;;0.70;;
30593;SDS011;33199;47.590;8.300;2022-09-29T13:47:59;0.50;;;0.50;;
30593;SDS011;33199;47.590;8.300;2022-09-29T13:50:47;0.40;;;0.40;;
30593;SDS011;33199;47.590;8.300;2022-09-29T13:58:26;0.57;;;0.50;;
30593;SDS011;33199;47.590;8.300;2022-09-29T14:00:52;0.35;;;0.35;;
30593;SDS011;33199;47.590;8.300;2022-09-29T14:03:24;0.52;;;0.52;;
30593;SDS011;33199;47.590;8.300;2022-09-29T14:06:06;0.40;;;0.40;;
30593;SDS011;33199;47.590;8.300;2022-09-29T14:08:54;0.40;;;0.40;;
30593;SDS011;33199;47.590;8.300;2022-09-29T14:11:33;0.43;;;0.43;;
30593;SDS011;33199;47.590;8.300;2022-09-29T14:14:06;0.45;;;0.45;;
30593;SDS011;33199;47.590;8.300;2022-09-29T14:32:58;0.43;;;0.43;;
30593;SDS011;33199;47.590;8.300;2022-09-29T14:35:33;0.47;;;0.40;;
30593;SDS011;33199;47.590;8.300;2022-09-29T14:40:34;0.40;;;0.40;;
30593;SDS011;33199;47.590;8.300;2022-09-29T14:43:04;0.75;;;0.60;;
30593;SDS011;33199;47.590;8.300;2022-09-29T14:45:40;0.55;;;0.38;;
30593;SDS011;33199;47.590;8.300;2022-09-29T14:48:31;0.60;;;0.60;;
30593;SDS011;33199;47.590;8.300;2022-09-29T14:51:28;0.50;;;0.50;;
30593;SDS011;33199;47.590;8.300;2022-09-29T14:54:29;0.50;;;0.50;;
30593;SDS011;33199;47.590;8.300;2022-09-29T15:00:15;0.63;;;0.50;;
30593;SDS011;33199;47.590;8.300;2022-09-29T15:02:51;1.17;;;0.60;;
30593;SDS011;33199;47.590;8.300;2022-09-29T15:07:48;0.68;;;0.68;;
30593;SDS011;33199;47.590;8.300;2022-09-29T15:10:24;0.60;;;0.60;;
30593;SDS011;33199;47.590;8.300;2022-09-29T15:13:15;0.40;;;0.40;;
30593;SDS011;33199;47.590;8.300;2022-09-29T15:15:40;0.50;;;0.50;;
30593;SDS011;33199;47.590;8.300;2022-09-29T15:20:59;0.43;;;0.30;;
30593;SDS011;33199;47.590;8.300;2022-09-29T15:26:34;0.50;;;0.50;;
30593;SDS011;33199;47.590;8.300;2022-09-29T15:29:03;0.40;;;0.40;;
30593;SDS011;33199;47.590;8.300;2022-09-29T15:31:31;0.40;;;0.40;;
30593;SDS011;33199;47.590;8.300;2022-09-29T15:34:00;0.43;;;0.43;;
30593;SDS011;33199;47.590;8.300;2022-09-29T15:36:35;0.43;;;0.40;;
30593;SDS011;33199;47.590;8.300;2022-09-29T15:39:04;0.52;;;0.45;;
30593;SDS011;33199;47.590;8.300;2022-09-29T15:41:32;0.40;;;0.40;;
30593;SDS011;33199;47.590;8.300;2022-09-29T15:44:00;0.43;;;0.43;;
30593;SDS011;33199;47.590;8.300;2022-09-29T15:46:38;0.57;;;0.43;;
30593;SDS011;33199;47.590;8.300;2022-09-29T15:49:13;0.70;;;0.60;;
30593;SDS011;33199;47.590;8.300;2022-09-29T15:51:40;2.08;;;0.43;;
30593;SDS011;33199;47.590;8.300;2022-09-29T15:54:19;0.75;;;0.52;;
30593;SDS011;33199;47.590;8.300;2022-09-29T15:56:45;0.40;;;0.40;;
30593;SDS011;33199;47.590;8.300;2022-09-29T16:00:03;0.47;;;0.47;;
30593;SDS011;33199;47.590;8.300;2022-09-29T16:02:27;0.30;;;0.30;;
30593;SDS011;33199;47.590;8.300;2022-09-29T16:04:57;1.70;;;0.50;;
30593;SDS011;33199;47.590;8.300;2022-09-29T16:07:48;0.77;;;0.40;;
30593;SDS011;33199;47.590;8.300;2022-09-29T16:10:22;0.50;;;0.50;;
30593;SDS011;33199;47.590;8.300;2022-09-29T16:12:56;0.40;;;0.40;;
30593;SDS011;33199;47.590;8.300;2022-09-29T16:15:27;0.60;;;0.40;;
30593;SDS011;33199;47.590;8.300;2022-09-29T16:17:58;0.30;;;0.30;;
30593;SDS011;33199;47.590;8.300;2022-09-29T16:20:30;0.50;;;0.50;;
30593;SDS011;33199;47.590;8.300;2022-09-29T16:23:06;0.47;;;0.43;;
30593;SDS011;33199;47.590;8.300;2022-09-29T16:25:33;0.43;;;0.43;;
30593;SDS011;33199;47.590;8.300;2022-09-29T16:28:00;0.68;;;0.40;;
30593;SDS011;33199;47.590;8.300;2022-09-29T16:30:33;0.40;;;0.38;;
30593;SDS011;33199;47.590;8.300;2022-09-29T16:33:13;0.40;;;0.40;;
30593;SDS011;33199;47.590;8.300;2022-09-29T16:35:45;0.30;;;0.30;;
30593;SDS011;33199;47.590;8.300;2022-09-29T16:38:28;0.30;;;0.30;;
30593;SDS011;33199;47.590;8.300;2022-09-29T16:40:58;0.50;;;0.50;;
30593;SDS011;33199;47.590;8.300;2022-09-29T16:43:25;0.43;;;0.43;;
30593;SDS011;33199;47.590;8.300;2022-09-29T16:45:55;1.10;;;0.70;;
30593;SDS011;33199;47.590;8.300;2022-09-29T16:48:23;2.13;;;0.43;;
30593;SDS011;33199;47.590;8.300;2022-09-29T16:50:54;0.40;;;0.40;;
30593;SDS011;33199;47.590;8.300;2022-09-29T16:53:26;1.10;;;0.30;;
30593;SDS011;33199;47.590;8.300;2022-09-29T16:55:57;0.43;;;0.43;;
30593;SDS011;33199;47.590;8.300;2022-09-29T16:58:28;0.40;;;0.40;;
30593;SDS011;33199;47.590;8.300;2022-09-29T17:03:22;0.60;;;0.50;;
30593;SDS011;33199;47.590;8.300;2022-09-29T17:05:48;6.22;;;0.63;;
30593;SDS011;33199;47.590;8.300;2022-09-29T17:08:17;7.00;;;0.60;;
30593;SDS011;33199;47.590;8.300;2022-09-29T17:10:46;0.35;;;0.35;;
30593;SDS011;33199;47.590;8.300;2022-09-29T17:13:15;0.52;;;0.43;;
30593;SDS011;33199;47.590;8.300;2022-09-29T17:15:42;0.60;;;0.60;;
30593;SDS011;33199;47.590;8.300;2022-09-29T17:18:11;0.40;;;0.40;;
30593;SDS011;33199;47.590;8.300;2022-09-29T17:20:37;0.50;;;0.50;;
30593;SDS011;33199;47.590;8.300;2022-09-29T17:23:03;1.25;;;0.40;;
30593;SDS011;33199;47.590;8.300;2022-09-29T17:25:30;0.60;;;0.50;;
30593;SDS011;33199;47.590;8.300;2022-09-29T17:27:56;0.40;;;0.40;;
30593;SDS011;33199;47.590;8.300;2022-09-29T17:30:39;0.50;;;0.50;;
30593;SDS011;33199;47.590;8.300;2022-09-29T17:33:09;0.68;;;0.68;;
30593;SDS011;33199;47.590;8.300;2022-09-29T17:35:37;2.80;;;1.35;;
30593;SDS011;33199;47.590;8.300;2022-09-29T17:38:05;7.40;;;4.15;;
30593;SDS011;33199;47.590;8.300;2022-09-29T17:43:28;6.65;;;4.32;;
30593;SDS011;33199;47.590;8.300;2022-09-29T17:45:58;7.00;;;4.00;;
30593;SDS011;33199;47.590;8.300;2022-09-29T17:48:25;4.13;;;3.72;;
30593;SDS011;33199;47.590;8.300;2022-09-29T17:50:51;5.70;;;4.15;;
30593;SDS011;33199;47.590;8.300;2022-09-29T17:53:20;3.83;;;3.53;;
30593;SDS011;33199;47.590;8.300;2022-09-29T17:55:48;4.07;;;3.67;;
30593;SDS011;33199;47.590;8.300;2022-09-29T17:58:17;3.92;;;3.53;;
30593;SDS011;33199;47.590;8.300;2022-09-29T18:00:44;6.35;;;3.38;;
30593;SDS011;33199;47.590;8.300;2022-09-29T18:03:13;4.50;;;3.58;;
30593;SDS011;33199;47.590;8.300;2022-09-29T18:08:09;3.80;;;3.10;;